createdAt,value
2019-05-20T00:02:24.721Z,4.10
2019-05-20T00:04:49.330Z,5.03
2019-05-20T00:07:17.928Z,3.47
2019-05-20T00:09:46.518Z,3.90
2019-05-20T00:12:15.103Z,3.80
2019-05-20T00:14:46.657Z,5.00
2019-05-20T00:17:16.105Z,3.25
2019-05-20T00:19:44.771Z,4.15
2019-05-20T00:22:17.203Z,3.75
2019-05-20T00:24:47.145Z,4.55
2019-05-20T00:27:15.860Z,8.30
2019-05-20T00:29:44.563Z,3.08
2019-05-20T00:32:13.197Z,3.45
2019-05-20T00:34:41.675Z,3.60
2019-05-20T00:37:10.222Z,2.85
2019-05-20T00:39:38.730Z,2.70
2019-05-20T00:42:07.365Z,3.27
2019-05-20T00:44:37.629Z,3.87
2019-05-20T00:47:06.307Z,6.30
2019-05-20T00:49:34.969Z,3.52
2019-05-20T00:52:03.520Z,2.83
2019-05-20T00:54:32.083Z,2.83
2019-05-20T00:57:00.662Z,2.47
2019-05-20T00:59:29.101Z,2.95
2019-05-20T01:01:59.118Z,3.40
2019-05-20T01:04:27.583Z,2.62
2019-05-20T01:06:56.150Z,4.17
2019-05-20T01:09:26.322Z,2.85
2019-05-20T01:11:55.141Z,3.13
2019-05-20T01:14:23.732Z,4.20
2019-05-20T01:16:52.356Z,2.62
2019-05-20T01:19:22.502Z,3.10
2019-05-20T01:21:51.023Z,3.53
2019-05-20T01:24:19.459Z,3.55
2019-05-20T01:26:50.834Z,3.92
2019-05-20T01:29:19.374Z,2.90
2019-05-20T01:31:47.857Z,4.25
2019-05-20T01:34:16.423Z,3.67
2019-05-20T01:36:45.086Z,3.60
2019-05-20T01:39:13.667Z,3.08
2019-05-20T01:41:42.178Z,3.40
2019-05-20T01:44:10.803Z,4.40
2019-05-20T01:46:39.340Z,5.00
2019-05-20T01:49:07.899Z,3.65
2019-05-20T01:51:36.527Z,4.67
2019-05-20T01:54:05.154Z,3.80
2019-05-20T01:56:33.678Z,4.78
2019-05-20T01:59:02.258Z,4.30
2019-05-20T02:01:30.815Z,5.35
2019-05-20T02:03:59.358Z,4.58
2019-05-20T02:06:27.985Z,6.62
2019-05-20T02:08:56.466Z,5.83
2019-05-20T02:11:25.356Z,6.35
2019-05-20T02:13:55.578Z,5.67
2019-05-20T02:16:25.735Z,6.50
2019-05-20T02:18:54.225Z,6.25
2019-05-20T02:21:22.898Z,7.10
2019-05-20T02:23:51.408Z,6.92
2019-05-20T02:26:20.043Z,6.85
2019-05-20T02:28:48.500Z,7.35
2019-05-20T02:31:17.022Z,7.53
2019-05-20T02:33:51.616Z,7.08
2019-05-20T02:36:15.975Z,7.85
2019-05-20T02:38:44.839Z,7.58
2019-05-20T02:41:13.361Z,7.70
2019-05-20T02:43:41.855Z,6.58
2019-05-20T02:46:10.396Z,7.65
2019-05-20T02:48:38.976Z,7.03
2019-05-20T02:51:07.701Z,7.60
2019-05-20T02:53:36.237Z,7.87
2019-05-20T02:56:04.886Z,7.87
2019-05-20T02:58:33.444Z,8.20
2019-05-20T03:01:02.009Z,8.03
2019-05-20T03:03:30.538Z,8.78
2019-05-20T03:05:59.020Z,9.25
2019-05-20T03:08:27.469Z,9.68
2019-05-20T03:10:56.010Z,12.45
2019-05-20T03:13:24.456Z,11.18
2019-05-20T03:15:53.014Z,10.30
2019-05-20T03:18:21.555Z,11.90
2019-05-20T03:20:50.116Z,12.05
2019-05-20T03:23:18.553Z,11.25
2019-05-20T03:25:47.257Z,11.88
2019-05-20T03:28:15.796Z,13.00
2019-05-20T03:30:44.297Z,12.47
2019-05-20T03:33:13.083Z,17.60
2019-05-20T03:35:41.715Z,14.68
2019-05-20T03:38:10.323Z,14.35
2019-05-20T03:40:38.829Z,13.32
2019-05-20T03:43:07.353Z,14.35
2019-05-20T03:45:35.924Z,15.68
2019-05-20T03:48:05.276Z,18.35
2019-05-20T03:50:33.799Z,15.45
2019-05-20T03:53:02.316Z,16.07
2019-05-20T03:55:30.839Z,16.05
2019-05-20T03:57:59.445Z,18.32
2019-05-20T04:00:47.111Z,16.65
2019-05-20T04:03:16.500Z,13.30
2019-05-20T04:05:45.580Z,13.65
2019-05-20T04:08:14.247Z,15.98
2019-05-20T04:10:42.978Z,13.72
2019-05-20T04:13:11.674Z,17.40
2019-05-20T04:15:40.118Z,15.60
2019-05-20T04:18:08.885Z,17.73
2019-05-20T04:20:37.405Z,13.35
2019-05-20T04:23:06.111Z,15.32
2019-05-20T04:25:36.188Z,14.13
2019-05-20T04:28:05.115Z,16.20
2019-05-20T04:30:34.231Z,18.23
2019-05-20T04:33:03.601Z,15.13
2019-05-20T04:35:32.127Z,19.27
2019-05-20T04:38:00.667Z,15.15
2019-05-20T04:40:29.260Z,17.35
2019-05-20T04:42:57.780Z,14.95
2019-05-20T04:45:26.289Z,18.23
2019-05-20T04:47:54.875Z,18.60
2019-05-20T04:50:23.387Z,15.20
2019-05-20T04:52:51.890Z,16.45
2019-05-20T04:55:20.638Z,16.32
2019-05-20T04:57:49.204Z,16.82
2019-05-20T05:00:20.761Z,18.90
2019-05-20T05:02:49.322Z,16.05
2019-05-20T05:05:17.813Z,16.97
2019-05-20T05:07:46.414Z,19.17
2019-05-20T05:10:15.171Z,19.07
2019-05-20T05:12:43.875Z,19.42
2019-05-20T05:15:13.044Z,17.80
2019-05-20T05:17:41.716Z,21.45
2019-05-20T05:20:17.489Z,18.48
2019-05-20T05:22:40.740Z,21.45
2019-05-20T05:25:09.455Z,20.37
2019-05-20T05:27:38.051Z,19.10
2019-05-20T05:30:07.888Z,17.20
2019-05-20T05:32:42.748Z,20.72
2019-05-20T05:35:13.650Z,19.85
2019-05-20T05:37:42.354Z,18.55
2019-05-20T05:40:11.716Z,19.65
2019-05-20T05:42:40.185Z,15.00
2019-05-20T05:45:09.723Z,21.75
2019-05-20T05:47:38.230Z,18.57
2019-05-20T05:50:07.062Z,22.73
2019-05-20T05:52:35.575Z,22.42
2019-05-20T05:55:06.016Z,19.87
2019-05-20T05:57:34.604Z,21.02
2019-05-20T06:00:04.983Z,19.42
2019-05-20T06:02:33.508Z,23.10
2019-05-20T06:05:02.217Z,22.20
2019-05-20T06:07:32.243Z,20.90
2019-05-20T06:10:00.781Z,22.45
2019-05-20T06:12:29.366Z,18.57
2019-05-20T06:14:57.977Z,23.00
2019-05-20T06:17:26.532Z,20.85
2019-05-20T06:19:55.186Z,21.85
2019-05-20T06:22:23.714Z,21.52
2019-05-20T06:24:52.258Z,18.65
2019-05-20T06:27:20.911Z,23.22
2019-05-20T06:29:49.380Z,23.52
2019-05-20T06:32:18.069Z,22.13
2019-05-20T06:34:46.683Z,21.17
2019-05-20T06:37:19.873Z,22.25
2019-05-20T06:39:51.123Z,24.15
2019-05-20T06:42:18.816Z,19.95
2019-05-20T06:44:53.071Z,19.37
2019-05-20T06:47:17.822Z,19.40
2019-05-20T06:49:46.383Z,21.90
2019-05-20T06:52:15.163Z,19.77
2019-05-20T06:54:43.606Z,19.75
2019-05-20T06:57:12.315Z,23.07
2019-05-20T06:59:41.414Z,20.70
2019-05-20T07:02:10.076Z,18.62
2019-05-20T07:04:38.566Z,15.43
2019-05-20T07:07:19.962Z,15.13
2019-05-20T07:09:37.400Z,17.82
2019-05-20T07:12:06.042Z,17.45
2019-05-20T07:14:34.537Z,17.77
2019-05-20T07:17:03.265Z,17.55
2019-05-20T07:19:31.810Z,16.00
2019-05-20T07:22:00.462Z,17.62
2019-05-20T07:24:28.988Z,20.70
2019-05-20T07:26:57.452Z,18.27
2019-05-20T07:29:26.173Z,18.05
2019-05-20T07:31:54.699Z,21.27
2019-05-20T07:34:23.196Z,17.80
2019-05-20T07:37:02.547Z,18.82
2019-05-20T07:39:22.175Z,20.75
2019-05-20T07:41:50.845Z,18.50
2019-05-20T07:44:19.668Z,19.75
2019-05-20T07:46:48.365Z,17.45
2019-05-20T07:49:17.294Z,20.77
2019-05-20T07:51:45.970Z,22.80
2019-05-20T07:54:18.950Z,18.87
2019-05-20T07:56:50.523Z,17.77
2019-05-20T07:59:22.186Z,20.12
2019-05-20T08:01:50.962Z,17.65
2019-05-20T08:04:19.688Z,20.43
2019-05-20T08:06:48.348Z,21.33
2019-05-20T08:09:17.063Z,17.95
2019-05-20T08:11:45.544Z,18.95
2019-05-20T08:14:14.274Z,18.87
2019-05-20T08:16:42.784Z,21.30
2019-05-20T08:19:11.426Z,17.12
2019-05-20T08:21:40.296Z,17.02
2019-05-20T08:24:08.859Z,18.57
2019-05-20T08:26:37.515Z,18.10
2019-05-20T08:29:06.128Z,20.60
2019-05-20T08:31:34.669Z,18.57
2019-05-20T08:34:03.507Z,18.73
2019-05-20T08:36:32.228Z,21.15
2019-05-20T08:39:00.905Z,20.15
2019-05-20T08:41:29.527Z,19.80
2019-05-20T08:43:58.335Z,16.57
2019-05-20T08:46:26.865Z,19.20
2019-05-20T08:48:55.598Z,17.65
2019-05-20T08:51:24.263Z,21.85
2019-05-20T08:53:52.796Z,18.45
2019-05-20T08:56:21.341Z,21.30
2019-05-20T08:58:49.846Z,15.30
2019-05-20T09:01:18.502Z,16.70
2019-05-20T09:03:47.050Z,19.25
2019-05-20T09:06:20.247Z,20.62
2019-05-20T09:08:45.963Z,16.50
2019-05-20T09:11:14.686Z,17.55
2019-05-20T09:13:43.284Z,22.00
2019-05-20T09:16:12.177Z,21.00
2019-05-20T09:18:40.770Z,16.07
2019-05-20T09:21:09.383Z,22.32
2019-05-20T09:23:38.034Z,19.92
2019-05-20T09:26:06.597Z,16.37
2019-05-20T09:28:35.126Z,21.20
2019-05-20T09:31:03.940Z,19.07
2019-05-20T09:33:32.567Z,21.68
2019-05-20T09:36:03.081Z,17.73
2019-05-20T09:38:31.793Z,15.85
2019-05-20T09:41:00.474Z,17.95
2019-05-20T09:43:29.035Z,18.92
2019-05-20T09:46:07.503Z,20.70
2019-05-20T09:48:27.776Z,18.40
2019-05-20T09:50:56.254Z,17.12
2019-05-20T09:53:24.888Z,17.10
2019-05-20T09:55:53.426Z,15.43
2019-05-20T09:58:21.944Z,15.43
2019-05-20T10:00:50.475Z,18.45
2019-05-20T10:03:19.133Z,21.97
2019-05-20T10:05:48.885Z,14.05
2019-05-20T10:08:17.527Z,18.30
2019-05-20T10:10:46.068Z,17.75
2019-05-20T10:13:15.866Z,18.52
2019-05-20T10:15:44.369Z,19.35
2019-05-20T10:18:12.963Z,17.87
2019-05-20T10:20:41.829Z,17.55
2019-05-20T10:23:10.410Z,16.17
2019-05-20T10:25:39.013Z,18.82
2019-05-20T10:28:07.702Z,18.77
2019-05-20T10:30:36.385Z,15.20
2019-05-20T10:33:09.643Z,14.58
2019-05-20T10:35:35.394Z,12.55
2019-05-20T10:38:04.208Z,15.23
2019-05-20T10:40:32.904Z,15.90
2019-05-20T10:43:01.582Z,16.67
2019-05-20T10:45:30.215Z,17.25
2019-05-20T10:47:58.878Z,20.12
2019-05-20T10:50:28.249Z,18.42
2019-05-20T10:52:56.928Z,19.60
2019-05-20T10:55:27.047Z,14.75
2019-05-20T10:57:55.608Z,17.55
2019-05-20T11:00:25.860Z,17.77
2019-05-20T11:02:54.447Z,14.90
2019-05-20T11:05:23.043Z,17.35
2019-05-20T11:07:53.947Z,18.57
2019-05-20T11:10:22.823Z,21.00
2019-05-20T11:12:51.481Z,19.10
2019-05-20T11:15:20.426Z,22.98
2019-05-20T11:17:48.893Z,23.42
2019-05-20T11:20:19.444Z,21.48
2019-05-20T11:22:48.011Z,21.80
2019-05-20T11:25:16.940Z,20.90
2019-05-20T11:27:45.502Z,23.75
2019-05-20T11:30:14.393Z,20.25
2019-05-20T11:32:42.957Z,21.48
2019-05-20T11:35:13.392Z,24.47
2019-05-20T11:37:45.931Z,23.70
2019-05-20T11:40:15.248Z,21.10
2019-05-20T11:42:45.514Z,24.12
2019-05-20T11:45:15.763Z,25.80
2019-05-20T11:47:44.247Z,19.17
2019-05-20T11:50:13.452Z,28.67
2019-05-20T11:52:42.210Z,23.73
2019-05-20T11:55:10.886Z,22.22
2019-05-20T11:57:39.753Z,25.35
2019-05-20T12:00:09.481Z,24.70
2019-05-20T12:02:38.221Z,30.75
2019-05-20T12:05:08.402Z,26.40
2019-05-20T12:07:36.976Z,24.80
2019-05-20T12:10:10.472Z,26.62
2019-05-20T12:12:39.233Z,25.52
2019-05-20T12:15:09.698Z,27.70
2019-05-20T12:17:38.437Z,25.05
2019-05-20T12:20:10.878Z,26.05
2019-05-20T12:22:38.863Z,29.20
2019-05-20T12:25:08.960Z,25.12
2019-05-20T12:27:37.603Z,27.20
2019-05-20T12:30:07.169Z,33.63
2019-05-20T12:32:35.977Z,22.55
2019-05-20T12:35:07.153Z,31.00
2019-05-20T12:37:35.724Z,34.00
2019-05-20T12:40:07.576Z,27.17
2019-05-20T12:42:35.891Z,25.90
2019-05-20T12:45:06.690Z,28.50
2019-05-20T12:47:35.261Z,34.30
2019-05-20T12:50:04.661Z,26.93
2019-05-20T12:52:33.226Z,24.30
2019-05-20T12:55:07.914Z,32.15
2019-05-20T12:57:32.091Z,33.28
2019-05-20T13:00:00.538Z,30.27
2019-05-20T13:02:29.093Z,40.40
2019-05-20T13:04:57.537Z,31.68
2019-05-20T13:07:26.083Z,29.55
2019-05-20T13:09:54.640Z,31.45
2019-05-20T13:12:23.084Z,36.65
2019-05-20T13:14:51.669Z,43.95
2019-05-20T13:17:20.114Z,36.35
2019-05-20T13:19:48.616Z,31.62
2019-05-20T13:22:17.217Z,31.35
2019-05-20T13:24:45.860Z,33.92
2019-05-20T13:27:14.311Z,29.07
2019-05-20T13:29:42.898Z,32.60
2019-05-20T13:32:11.518Z,33.05
2019-05-20T13:34:40.016Z,29.10
2019-05-20T13:37:08.480Z,31.15
2019-05-20T13:39:39.102Z,29.15
2019-05-20T13:42:07.633Z,32.63
2019-05-20T13:44:36.173Z,28.62
2019-05-20T13:47:05.065Z,32.15
2019-05-20T13:49:33.550Z,31.73
2019-05-20T13:52:02.391Z,31.77
2019-05-20T13:54:31.082Z,29.10
2019-05-20T13:56:59.671Z,38.92
2019-05-20T13:59:28.278Z,25.27
2019-05-20T14:01:56.827Z,26.23
2019-05-20T14:04:25.456Z,27.07
2019-05-20T14:06:54.065Z,28.85
2019-05-20T14:09:22.703Z,25.25
2019-05-20T14:11:51.408Z,29.63
2019-05-20T14:14:20.831Z,22.75
2019-05-20T14:16:49.369Z,22.07
2019-05-20T14:19:17.931Z,22.37
2019-05-20T14:21:46.583Z,19.82
2019-05-20T14:24:15.245Z,17.45
2019-05-20T14:26:44.136Z,20.88
2019-05-20T14:29:14.733Z,17.02
2019-05-20T14:31:43.035Z,15.72
2019-05-20T14:34:14.343Z,13.58
2019-05-20T14:36:42.965Z,14.63
2019-05-20T14:39:16.041Z,14.63
2019-05-20T14:41:44.667Z,12.30
2019-05-20T14:44:14.475Z,14.18
2019-05-20T14:46:42.971Z,13.50
2019-05-20T14:49:11.519Z,14.98
2019-05-20T14:51:40.150Z,12.10
2019-05-20T14:54:08.963Z,15.90
2019-05-20T14:56:37.550Z,14.98
2019-05-20T14:59:06.100Z,15.28
2019-05-20T15:01:36.487Z,15.35
2019-05-20T15:04:05.199Z,10.80
2019-05-20T15:06:33.719Z,12.45
2019-05-20T15:09:02.278Z,14.83
2019-05-20T15:11:38.091Z,13.38
2019-05-20T15:14:01.098Z,13.88
2019-05-20T15:16:29.757Z,18.77
2019-05-20T15:19:01.244Z,16.37
2019-05-20T15:21:29.923Z,17.52
2019-05-20T15:24:01.598Z,19.60
2019-05-20T15:26:32.093Z,19.35
2019-05-20T15:29:00.529Z,19.67
2019-05-20T15:31:29.234Z,23.98
2019-05-20T15:33:59.353Z,24.23
2019-05-20T15:36:27.868Z,28.93
2019-05-20T15:38:56.370Z,29.72
2019-05-20T15:41:24.894Z,25.52
2019-05-20T15:43:53.474Z,23.90
2019-05-20T15:46:26.823Z,21.15
2019-05-20T15:48:55.332Z,17.65
2019-05-20T15:51:25.941Z,18.27
2019-05-20T15:53:54.747Z,18.07
2019-05-20T15:56:23.423Z,14.78
2019-05-20T15:58:52.023Z,17.25
2019-05-20T16:01:20.486Z,15.78
2019-05-20T16:03:51.438Z,18.82
2019-05-20T16:06:19.508Z,17.17
2019-05-20T16:08:48.044Z,19.73
2019-05-20T16:11:16.759Z,18.92
2019-05-20T16:13:45.374Z,19.85
2019-05-20T16:16:14.007Z,21.23
2019-05-20T16:18:42.515Z,20.02
2019-05-20T16:21:11.234Z,20.60
2019-05-20T16:23:39.788Z,22.20
2019-05-20T16:26:08.331Z,20.62
2019-05-20T16:28:36.808Z,22.65
2019-05-20T16:31:05.362Z,22.67
2019-05-20T16:33:33.980Z,21.17
2019-05-20T16:36:02.621Z,21.15
2019-05-20T16:38:31.205Z,20.70
2019-05-20T16:41:00.966Z,24.25
2019-05-20T16:43:29.520Z,16.25
2019-05-20T16:45:58.087Z,23.87
2019-05-20T16:48:26.629Z,22.77
2019-05-20T16:50:55.223Z,21.90
2019-05-20T16:53:23.704Z,23.95
2019-05-20T16:55:52.309Z,21.42
2019-05-20T16:58:20.890Z,19.23
2019-05-20T17:00:49.365Z,21.30
2019-05-20T17:03:17.846Z,20.48
2019-05-20T17:05:46.352Z,27.15
2019-05-20T17:08:14.920Z,25.85
2019-05-20T17:10:43.394Z,28.12
2019-05-20T17:13:11.868Z,23.02
2019-05-20T17:15:40.515Z,21.60
2019-05-20T17:18:08.987Z,19.37
2019-05-20T17:20:37.969Z,23.65
2019-05-20T17:23:06.561Z,31.12
2019-05-20T17:25:35.597Z,21.40
2019-05-20T17:28:04.207Z,27.00
2019-05-20T17:30:44.494Z,27.37
2019-05-20T17:33:03.333Z,21.27
2019-05-20T17:35:31.945Z,26.35
2019-05-20T17:38:00.688Z,27.77
2019-05-20T17:40:29.443Z,22.25
2019-05-20T17:42:58.095Z,24.72
2019-05-20T17:45:26.739Z,23.45
2019-05-20T17:47:55.601Z,21.93
2019-05-20T17:50:24.224Z,23.30
2019-05-20T17:52:52.964Z,21.27
2019-05-20T17:55:21.568Z,25.50
2019-05-20T17:57:50.099Z,23.55
2019-05-20T18:00:20.484Z,26.27
2019-05-20T18:02:49.293Z,28.45
2019-05-20T18:05:17.943Z,23.47
2019-05-20T18:07:46.704Z,24.85
2019-05-20T18:10:17.565Z,22.65
2019-05-20T18:12:46.356Z,27.10
2019-05-20T18:15:16.750Z,23.85
2019-05-20T18:17:45.671Z,22.07
2019-05-20T18:20:14.515Z,24.82
2019-05-20T18:22:45.288Z,24.35
2019-05-20T18:25:14.304Z,28.45
2019-05-20T18:27:42.999Z,26.37
2019-05-20T18:30:13.496Z,26.45
2019-05-20T18:32:42.376Z,25.27
2019-05-20T18:35:11.352Z,25.70
2019-05-20T18:37:40.087Z,33.00
2019-05-20T18:40:14.416Z,24.40
2019-05-20T18:42:40.003Z,33.98
2019-05-20T18:45:09.185Z,45.30
2019-05-20T18:47:38.053Z,26.60
2019-05-20T18:50:10.321Z,19.40
2019-05-20T18:52:38.935Z,18.82
2019-05-20T18:55:07.698Z,20.05
2019-05-20T18:57:36.439Z,17.30
2019-05-20T19:00:08.335Z,17.65
2019-05-20T19:02:37.062Z,16.77
2019-05-20T19:05:08.797Z,18.75
2019-05-20T19:07:37.626Z,17.20
2019-05-20T19:10:06.817Z,17.48
2019-05-20T19:12:35.376Z,15.78
2019-05-20T19:15:05.428Z,13.88
2019-05-20T19:17:34.119Z,11.93
2019-05-20T19:20:03.248Z,15.88
2019-05-20T19:22:32.030Z,12.75
2019-05-20T19:25:00.871Z,19.95
2019-05-20T19:27:30.038Z,15.10
2019-05-20T19:29:58.752Z,13.98
2019-05-20T19:32:27.865Z,17.35
2019-05-20T19:34:56.613Z,14.38
2019-05-20T19:37:25.423Z,16.30
2019-05-20T19:39:54.346Z,15.38
2019-05-20T19:42:22.866Z,15.95
2019-05-20T19:44:51.609Z,14.07
2019-05-20T19:47:20.172Z,13.40
2019-05-20T19:49:48.715Z,12.40
2019-05-20T19:52:18.630Z,13.32
2019-05-20T19:54:51.932Z,13.00
2019-05-20T19:57:20.638Z,14.65
2019-05-20T19:59:49.338Z,14.90
2019-05-20T20:02:19.004Z,13.43
2019-05-20T20:04:47.714Z,13.03
2019-05-20T20:07:16.699Z,16.57
2019-05-20T20:09:45.330Z,12.47
2019-05-20T20:12:14.115Z,17.17
2019-05-20T20:14:42.828Z,17.60
2019-05-20T20:17:11.813Z,16.45
2019-05-20T20:22:35.889Z,15.35
2019-05-20T20:25:12.132Z,16.30
2019-05-20T20:27:36.571Z,14.33
2019-05-20T20:30:07.531Z,19.32
2019-05-20T20:35:07.128Z,18.20
2019-05-20T20:37:35.740Z,20.70
2019-05-20T20:40:04.744Z,19.02
2019-05-20T20:42:35.056Z,21.45
2019-05-20T20:45:04.512Z,20.85
2019-05-20T20:47:41.333Z,19.50
2019-05-20T20:50:04.769Z,17.85
2019-05-20T20:52:33.375Z,18.55
2019-05-20T20:55:02.216Z,18.35
2019-05-20T20:57:30.802Z,24.50
2019-05-20T20:59:59.554Z,20.15
2019-05-20T21:02:28.247Z,22.48
2019-05-20T21:04:56.787Z,20.60
2019-05-20T21:07:25.528Z,20.35
2019-05-20T21:09:54.003Z,18.65
2019-05-20T21:12:22.643Z,19.35
2019-05-20T21:14:51.340Z,19.37
2019-05-20T21:17:19.903Z,20.35
2019-05-20T21:19:51.257Z,20.90
2019-05-20T21:22:20.009Z,27.20
2019-05-20T21:24:48.511Z,24.70
2019-05-20T21:27:17.135Z,22.93
2019-05-20T21:29:45.706Z,25.55
2019-05-20T21:32:14.554Z,23.05
2019-05-20T21:34:43.177Z,23.45
2019-05-20T21:37:12.161Z,24.47
2019-05-20T21:39:40.756Z,24.98
2019-05-20T21:42:21.470Z,26.55
2019-05-20T21:44:53.102Z,24.67
2019-05-20T21:47:23.297Z,30.85
2019-05-20T21:49:54.219Z,35.17
2019-05-20T21:52:22.951Z,32.60
2019-05-20T21:54:51.839Z,39.03
2019-05-20T21:57:20.441Z,45.52
2019-05-20T21:59:49.193Z,44.53
2019-05-20T22:02:18.060Z,48.75
2019-05-20T22:04:46.629Z,47.73
2019-05-20T22:07:15.201Z,52.25
2019-05-20T22:09:43.902Z,51.15
2019-05-20T22:12:12.456Z,53.58
2019-05-20T22:14:41.020Z,54.15
2019-05-20T22:17:10.104Z,52.45
2019-05-20T22:19:40.208Z,55.40
2019-05-20T22:22:26.704Z,58.77
2019-05-20T22:24:55.265Z,64.32
2019-05-20T22:27:24.000Z,66.07
2019-05-20T22:29:52.743Z,73.35
2019-05-20T22:32:21.527Z,59.05
2019-05-20T22:34:53.873Z,70.15
2019-05-20T22:37:21.886Z,68.37
2019-05-20T22:39:52.121Z,63.98
2019-05-20T22:42:22.397Z,68.05
2019-05-20T22:44:50.889Z,67.60
2019-05-20T22:47:19.408Z,73.50
2019-05-20T22:49:48.348Z,75.95
2019-05-20T22:52:16.882Z,68.15
2019-05-20T22:54:45.402Z,64.60
2019-05-20T22:57:15.457Z,66.25
2019-05-20T22:59:44.219Z,71.67
2019-05-20T23:02:16.048Z,70.15
2019-05-20T23:04:44.631Z,72.50
2019-05-20T23:07:13.198Z,76.65
2019-05-20T23:09:43.254Z,67.78
2019-05-20T23:12:13.350Z,67.47
2019-05-20T23:14:42.131Z,60.92
2019-05-20T23:17:10.941Z,71.92
2019-05-20T23:19:39.794Z,64.40
2019-05-20T23:22:08.348Z,68.67
2019-05-20T23:24:36.936Z,64.17
2019-05-20T23:27:05.591Z,72.67
2019-05-20T23:29:34.180Z,56.10
2019-05-20T23:32:02.707Z,70.32
2019-05-20T23:34:31.234Z,66.25
2019-05-20T23:36:59.836Z,67.27
2019-05-20T23:39:30.003Z,58.70
2019-05-20T23:41:58.571Z,57.43
2019-05-20T23:44:27.170Z,58.28
2019-05-20T23:46:55.690Z,60.33
2019-05-20T23:49:24.216Z,68.35
2019-05-20T23:51:52.752Z,61.60
2019-05-20T23:54:21.353Z,67.53
2019-05-20T23:56:49.847Z,62.88
2019-05-20T23:59:18.632Z,66.80
